createdAt,value
2022-12-23T00:00:40.554Z,32.15
2022-12-23T00:03:08.290Z,33.75
2022-12-23T00:05:39.983Z,33.20
2022-12-23T00:08:08.605Z,31.60
2022-12-23T00:10:39.930Z,37.50
2022-12-23T00:13:26.895Z,33.65
2022-12-23T00:16:11.732Z,31.92
2022-12-23T00:18:40.405Z,31.83
2022-12-23T00:21:14.265Z,29.58
2022-12-23T00:23:45.374Z,32.92
2022-12-23T00:26:22.139Z,32.83
2022-12-23T00:28:50.084Z,30.15
2022-12-23T00:31:19.030Z,33.05
2022-12-23T00:33:50.761Z,36.50
2022-12-23T00:36:31.195Z,36.95
2022-12-23T00:39:18.584Z,35.25
2022-12-23T00:42:04.936Z,32.63
2022-12-23T00:44:32.701Z,36.55
2022-12-23T00:47:00.456Z,33.42
2022-12-23T00:49:42.644Z,30.00
2022-12-23T00:52:18.066Z,31.23
2022-12-23T00:54:45.438Z,30.42
2022-12-23T00:57:12.826Z,30.00
2022-12-23T00:59:40.212Z,30.00
2022-12-23T01:02:26.077Z,29.95
2022-12-23T01:05:11.793Z,26.08
2022-12-23T01:07:39.227Z,30.52
2022-12-23T01:10:06.970Z,29.35
2022-12-23T01:12:34.432Z,29.88
2022-12-23T01:15:01.869Z,31.70
2022-12-23T01:17:29.219Z,31.80
2022-12-23T01:19:56.574Z,36.45
2022-12-23T01:22:23.987Z,27.65
2022-12-23T01:24:51.339Z,32.03
2022-12-23T01:27:18.570Z,36.55
2022-12-23T01:29:46.920Z,36.75
2022-12-23T01:32:14.906Z,32.38
2022-12-23T01:34:42.301Z,37.42
2022-12-23T01:37:09.761Z,35.58
2022-12-23T01:39:37.051Z,33.78
2022-12-23T01:42:22.822Z,35.17
2022-12-23T01:44:54.118Z,33.88
2022-12-23T01:47:57.000Z,35.45
2022-12-23T01:50:39.395Z,35.90
2022-12-23T01:53:24.628Z,32.83
2022-12-23T01:55:53.827Z,37.28
2022-12-23T01:58:28.321Z,38.08
2022-12-23T02:01:16.733Z,38.30
2022-12-23T02:03:46.724Z,50.72
2022-12-23T02:06:40.617Z,38.92
2022-12-23T02:09:19.969Z,34.75
2022-12-23T02:12:25.228Z,55.88
2022-12-23T02:15:41.180Z,56.17
2022-12-23T02:18:43.744Z,56.90
2022-12-23T02:21:23.544Z,56.78
2022-12-23T02:24:03.125Z,73.15
2022-12-23T02:26:33.532Z,80.50
2022-12-23T02:29:09.841Z,78.90
2022-12-23T02:31:51.325Z,91.10
2022-12-23T02:34:40.557Z,120.25
2022-12-23T02:37:13.856Z,96.55
2022-12-23T02:39:48.635Z,109.80
2022-12-23T02:42:16.847Z,101.22
2022-12-23T02:45:10.060Z,121.65
2022-12-23T02:47:43.096Z,167.45
2022-12-23T02:50:14.843Z,98.95
2022-12-23T02:52:45.270Z,179.13
2022-12-23T02:55:21.051Z,147.27
2022-12-23T02:57:51.788Z,144.30
2022-12-23T03:00:19.694Z,147.75
2022-12-23T03:02:47.491Z,168.40
2022-12-23T03:05:29.793Z,201.25
2022-12-23T03:08:00.512Z,138.70
2022-12-23T03:11:06.266Z,170.90
2022-12-23T03:13:55.158Z,227.02
2022-12-23T03:16:32.570Z,193.20
2022-12-23T03:19:25.985Z,240.60
2022-12-23T03:22:11.257Z,253.00
2022-12-23T03:25:08.268Z,190.85
2022-12-23T03:27:43.157Z,281.63
2022-12-23T03:30:19.237Z,335.02
2022-12-23T03:32:58.855Z,294.60
2022-12-23T03:35:35.907Z,240.65
2022-12-23T03:38:05.035Z,203.52
2022-12-23T03:40:41.971Z,243.65
2022-12-23T03:43:16.096Z,279.73
2022-12-23T03:45:48.476Z,246.38
2022-12-23T03:48:32.052Z,199.63
2022-12-23T03:51:05.089Z,320.92
2022-12-23T03:53:55.293Z,324.50
2022-12-23T03:56:29.508Z,274.83
2022-12-23T03:59:07.015Z,231.95
2022-12-23T04:02:01.746Z,288.02
2022-12-23T04:04:52.415Z,313.92
2022-12-23T04:07:25.664Z,341.88
2022-12-23T04:09:54.380Z,284.60
2022-12-23T04:12:24.238Z,314.50
2022-12-23T04:14:52.058Z,250.20
2022-12-23T04:17:20.344Z,294.70
2022-12-23T04:19:48.042Z,241.25
2022-12-23T04:22:16.480Z,311.70
2022-12-23T04:24:45.165Z,253.75
2022-12-23T04:27:16.721Z,360.27
2022-12-23T04:29:44.277Z,320.98
2022-12-23T04:32:11.762Z,271.88
2022-12-23T04:34:39.002Z,325.65
2022-12-23T04:37:06.346Z,246.23
2022-12-23T04:39:33.651Z,267.33
2022-12-23T04:42:00.913Z,265.15
2022-12-23T04:44:28.178Z,298.70
2022-12-23T04:46:56.231Z,267.13
2022-12-23T04:49:23.629Z,268.52
2022-12-23T04:51:50.891Z,315.70
2022-12-23T04:54:18.300Z,355.23
2022-12-23T04:56:45.607Z,295.08
2022-12-23T04:59:12.947Z,316.33
2022-12-23T05:01:42.317Z,303.58
2022-12-23T05:04:10.384Z,294.27
2022-12-23T05:06:38.177Z,296.15
2022-12-23T05:09:06.077Z,292.38
2022-12-23T05:11:38.511Z,382.63
2022-12-23T05:14:13.367Z,335.38
2022-12-23T05:16:40.871Z,307.10
2022-12-23T05:19:08.244Z,346.67
2022-12-23T05:21:35.647Z,333.05
2022-12-23T05:24:02.940Z,275.35
2022-12-23T05:26:30.496Z,374.60
2022-12-23T05:28:57.783Z,388.52
2022-12-23T05:31:25.103Z,300.23
2022-12-23T05:33:52.497Z,353.25
2022-12-23T05:36:19.975Z,347.40
2022-12-23T05:38:48.225Z,327.20
2022-12-23T05:41:17.162Z,344.42
2022-12-23T05:43:44.522Z,177.75
2022-12-23T05:46:11.899Z,301.23
2022-12-23T05:48:39.189Z,252.45
2022-12-23T05:51:06.690Z,260.10
2022-12-23T05:53:34.032Z,319.33
2022-12-23T05:56:05.268Z,353.60
2022-12-23T05:58:32.866Z,257.30
2022-12-23T06:01:03.275Z,229.32
2022-12-23T06:03:31.165Z,272.42
2022-12-23T06:05:58.657Z,207.18
2022-12-23T06:08:26.097Z,196.02
2022-12-23T06:10:54.258Z,169.80
2022-12-23T06:13:21.598Z,195.77
2022-12-23T06:15:48.908Z,148.68
2022-12-23T06:18:16.260Z,178.70
2022-12-23T06:20:47.858Z,219.68
2022-12-23T06:23:15.223Z,227.82
2022-12-23T06:25:42.679Z,155.32
2022-12-23T06:28:10.062Z,292.27
2022-12-23T06:30:37.351Z,135.82
2022-12-23T06:33:04.710Z,218.10
2022-12-23T06:35:32.118Z,182.90
2022-12-23T06:37:59.273Z,253.75
2022-12-23T06:40:28.691Z,302.45
2022-12-23T06:42:56.021Z,303.02
2022-12-23T06:45:23.330Z,244.63
2022-12-23T06:47:50.583Z,241.38
2022-12-23T06:50:17.996Z,203.63
2022-12-23T06:52:45.929Z,266.95
2022-12-23T06:55:13.379Z,289.45
2022-12-23T06:57:40.743Z,211.77
2022-12-23T07:00:09.057Z,228.77
2022-12-23T07:02:36.481Z,184.23
2022-12-23T07:05:03.910Z,146.32
2022-12-23T07:07:32.519Z,134.93
2022-12-23T07:10:00.042Z,117.70
2022-12-23T07:12:27.400Z,128.30
2022-12-23T07:14:54.661Z,89.82
2022-12-23T07:17:21.909Z,105.63
2022-12-23T07:19:49.262Z,100.30
2022-12-23T07:22:16.562Z,170.68
2022-12-23T07:24:43.827Z,142.63
2022-12-23T07:27:11.217Z,135.02
2022-12-23T07:29:38.488Z,116.85
2022-12-23T07:32:05.916Z,109.22
2022-12-23T07:34:33.338Z,131.98
2022-12-23T07:37:00.893Z,147.07
2022-12-23T07:39:28.289Z,172.68
2022-12-23T07:42:16.647Z,116.28
2022-12-23T07:44:42.811Z,114.32
2022-12-23T07:47:10.168Z,123.22
2022-12-23T07:49:37.532Z,147.60
2022-12-23T07:52:05.140Z,176.20
2022-12-23T07:54:32.499Z,158.45
2022-12-23T07:56:59.803Z,132.00
2022-12-23T07:59:27.840Z,125.03
2022-12-23T08:01:55.306Z,96.25
2022-12-23T08:04:22.887Z,111.40
2022-12-23T08:06:50.151Z,98.25
2022-12-23T08:09:17.483Z,96.15
2022-12-23T08:11:46.116Z,79.32
2022-12-23T08:14:13.417Z,74.75
2022-12-23T08:16:43.918Z,85.57
2022-12-23T08:19:11.874Z,85.00
2022-12-23T08:21:39.222Z,74.72
2022-12-23T08:24:06.796Z,75.25
2022-12-23T08:26:34.109Z,101.57
2022-12-23T08:29:01.552Z,95.47
2022-12-23T08:31:33.909Z,64.97
2022-12-23T08:34:01.679Z,78.40
2022-12-23T08:36:32.638Z,61.90
2022-12-23T08:39:02.777Z,56.88
2022-12-23T08:41:34.315Z,64.10
2022-12-23T08:44:01.625Z,62.92
2022-12-23T08:46:29.338Z,72.95
2022-12-23T08:48:57.246Z,60.55
2022-12-23T08:51:26.148Z,64.15
2022-12-23T08:54:00.402Z,68.05
2022-12-23T08:56:31.531Z,70.45
2022-12-23T08:58:59.446Z,75.97
2022-12-23T09:01:29.758Z,75.07
2022-12-23T09:03:57.414Z,66.65
2022-12-23T09:06:30.540Z,64.32
2022-12-23T09:08:59.086Z,65.45
2022-12-23T09:11:29.174Z,56.90
2022-12-23T09:13:58.654Z,53.08
2022-12-23T09:16:26.404Z,53.75
2022-12-23T09:18:53.717Z,54.72
2022-12-23T09:21:23.478Z,55.97
2022-12-23T09:23:50.985Z,56.60
2022-12-23T09:26:24.334Z,51.13
2022-12-23T09:28:52.046Z,48.28
2022-12-23T09:31:20.248Z,46.88
2022-12-23T09:33:49.354Z,53.97
2022-12-23T09:36:16.768Z,42.30
2022-12-23T09:38:44.819Z,51.00
2022-12-23T09:41:30.833Z,43.05
2022-12-23T09:44:14.848Z,42.08
2022-12-23T09:49:19.064Z,39.30
2022-12-23T09:51:47.438Z,49.95
2022-12-23T09:54:24.867Z,45.25
2022-12-23T09:56:53.571Z,47.20
2022-12-23T09:59:43.971Z,46.08
2022-12-23T10:02:39.310Z,52.67
2022-12-23T10:05:17.558Z,53.58
2022-12-23T10:08:06.732Z,55.58
2022-12-23T10:10:51.243Z,43.53
2022-12-23T10:13:41.688Z,46.80
2022-12-23T10:16:16.012Z,46.20
2022-12-23T10:19:01.066Z,49.28
2022-12-23T10:21:47.538Z,44.55
2022-12-23T10:24:30.752Z,44.50
2022-12-23T10:27:03.179Z,57.63
2022-12-23T10:29:34.644Z,67.38
2022-12-23T10:32:37.389Z,67.95
2022-12-23T10:35:22.219Z,53.63
2022-12-23T10:38:16.888Z,42.40
2022-12-23T10:41:01.276Z,54.97
2022-12-23T10:43:35.324Z,57.60
2022-12-23T10:46:22.404Z,63.70
2022-12-23T10:49:22.065Z,53.50
2022-12-23T10:51:57.856Z,94.55
2022-12-23T10:54:31.227Z,63.80
2022-12-23T10:56:58.927Z,63.67
2022-12-23T10:59:34.161Z,55.20
2022-12-23T11:02:13.993Z,80.18
2022-12-23T11:04:44.573Z,64.15
2022-12-23T11:07:49.911Z,58.90
2022-12-23T11:10:21.165Z,60.58
2022-12-23T11:12:51.085Z,68.10
2022-12-23T11:15:35.073Z,55.08
2022-12-23T11:20:30.302Z,56.42
2022-12-23T11:23:02.513Z,70.28
2022-12-23T11:25:39.202Z,58.85
2022-12-23T11:28:17.409Z,61.67
2022-12-23T11:30:57.348Z,70.05
2022-12-23T11:33:31.377Z,66.28
2022-12-23T11:36:09.365Z,71.65
2022-12-23T11:38:47.667Z,65.95
2022-12-23T11:41:24.075Z,67.70
2022-12-23T11:44:04.901Z,68.70
2022-12-23T11:46:34.761Z,62.45
2022-12-23T11:49:24.441Z,59.35
2022-12-23T11:52:11.366Z,47.85
2022-12-23T11:54:39.945Z,54.15
2022-12-23T11:57:17.743Z,54.65
2022-12-23T11:59:51.744Z,55.50
2022-12-23T12:02:24.260Z,61.83
2022-12-23T12:05:00.004Z,54.88
2022-12-23T12:07:27.850Z,51.88
2022-12-23T12:09:59.627Z,67.13
2022-12-23T12:12:28.021Z,60.38
2022-12-23T12:15:00.267Z,40.58
2022-12-23T12:17:43.921Z,54.53
2022-12-23T12:20:33.480Z,42.05
2022-12-23T12:23:33.189Z,42.95
2022-12-23T12:26:06.567Z,62.83
2022-12-23T12:28:45.731Z,45.65
2022-12-23T12:31:17.587Z,41.53
2022-12-23T12:33:50.840Z,45.35
2022-12-23T12:36:33.219Z,39.85
2022-12-23T12:39:00.902Z,42.70
2022-12-23T12:41:50.842Z,36.40
2022-12-23T12:44:24.366Z,35.33
2022-12-23T12:47:44.564Z,37.95
2022-12-23T12:50:11.636Z,44.78
2022-12-23T12:52:42.236Z,36.15
2022-12-23T12:55:33.571Z,37.35
2022-12-23T12:58:02.996Z,36.88
2022-12-23T13:00:46.623Z,40.88
2022-12-23T13:03:59.015Z,42.05
2022-12-23T13:06:34.925Z,41.92
2022-12-23T13:09:14.927Z,47.28
2022-12-23T13:11:56.753Z,50.25
2022-12-23T13:14:35.020Z,48.40
2022-12-23T13:17:20.739Z,47.33
2022-12-23T13:20:02.703Z,54.80
2022-12-23T13:22:34.032Z,43.67
2022-12-23T13:25:14.796Z,45.20
2022-12-23T13:28:08.472Z,50.90
2022-12-23T13:31:04.572Z,37.30
2022-12-23T13:33:48.324Z,41.50
2022-12-23T13:36:43.451Z,40.22
2022-12-23T13:39:25.822Z,45.45
2022-12-23T13:41:59.883Z,41.33
2022-12-23T13:44:33.153Z,38.25
2022-12-23T13:47:03.229Z,48.25
2022-12-23T13:49:39.726Z,44.70
2022-12-23T13:52:29.923Z,42.38
2022-12-23T18:32:51.720Z,27.65
2022-12-23T18:35:27.830Z,28.00
2022-12-23T18:37:55.507Z,35.47
2022-12-23T18:40:26.786Z,32.95
2022-12-23T18:42:58.227Z,35.65
2022-12-23T18:45:38.677Z,37.95
2022-12-23T18:48:08.654Z,35.95
2022-12-23T18:50:38.301Z,35.00
2022-12-23T18:53:07.266Z,27.30
2022-12-23T18:55:34.826Z,23.98
2022-12-23T18:58:02.076Z,31.25
2022-12-23T19:00:31.365Z,29.35
2022-12-23T19:02:58.595Z,29.23
2022-12-23T19:05:32.987Z,27.20
2022-12-23T19:08:00.735Z,30.23
2022-12-23T19:10:32.923Z,24.25
2022-12-23T19:13:00.720Z,21.75
2022-12-23T19:15:28.503Z,20.98
2022-12-23T19:17:55.800Z,24.60
2022-12-23T19:20:23.081Z,23.95
2022-12-23T19:22:50.266Z,28.33
2022-12-23T19:25:19.260Z,24.58
2022-12-23T19:27:47.306Z,30.52
2022-12-23T19:30:17.659Z,24.52
2022-12-23T19:32:45.364Z,21.73
2022-12-23T19:35:15.549Z,19.98
2022-12-23T19:37:43.146Z,21.65
2022-12-23T19:40:10.966Z,20.25
2022-12-23T19:42:39.305Z,22.13
2022-12-23T19:45:08.702Z,22.55
2022-12-23T19:47:35.984Z,19.13
2022-12-23T19:50:04.662Z,17.48
2022-12-23T19:52:31.947Z,21.80
2022-12-23T19:54:59.060Z,16.17
2022-12-23T19:57:26.239Z,12.10
2022-12-23T19:59:53.806Z,9.05
2022-12-23T20:02:20.944Z,11.10
2022-12-23T20:04:48.389Z,8.18
2022-12-23T20:07:16.217Z,6.78
2022-12-23T20:09:43.311Z,6.78
2022-12-23T20:12:10.806Z,8.43
2022-12-23T20:14:38.187Z,5.93
2022-12-23T20:17:05.435Z,7.25
2022-12-23T20:19:32.934Z,8.65
2022-12-23T20:22:00.125Z,6.38
2022-12-23T20:24:27.845Z,3.60
2022-12-23T20:26:56.254Z,7.38
2022-12-23T20:29:23.424Z,6.30
2022-12-23T20:31:50.782Z,18.48
2022-12-23T20:34:18.378Z,11.05
2022-12-23T20:36:45.769Z,8.68
2022-12-23T20:39:12.968Z,14.88
2022-12-23T20:41:40.426Z,12.80
2022-12-23T20:44:33.749Z,8.32
2022-12-23T20:46:55.048Z,8.45
2022-12-23T20:49:22.281Z,6.30
2022-12-23T20:51:49.434Z,5.00
2022-12-23T20:54:16.658Z,5.53
2022-12-23T20:56:43.814Z,12.70
2022-12-23T20:59:10.911Z,4.95
2022-12-23T21:01:39.970Z,3.85
2022-12-23T21:04:10.385Z,8.27
2022-12-23T21:06:38.087Z,5.90
2022-12-23T21:09:07.396Z,7.00
2022-12-23T21:11:37.254Z,4.85
2022-12-23T21:14:07.232Z,4.65
2022-12-23T21:16:36.756Z,7.65
2022-12-23T21:19:05.419Z,6.72
2022-12-23T21:21:32.842Z,4.65
2022-12-23T21:24:04.725Z,3.00
2022-12-23T21:26:34.228Z,4.65
2022-12-23T21:29:04.126Z,7.00
2022-12-23T21:31:33.582Z,3.13
2022-12-23T21:34:00.902Z,2.92
2022-12-23T21:36:31.430Z,1.83
2022-12-23T21:38:59.742Z,3.63
2022-12-23T21:41:36.847Z,7.35
2022-12-23T21:44:04.284Z,4.45
2022-12-23T21:46:31.463Z,2.78
2022-12-23T21:48:59.686Z,2.50
2022-12-23T21:51:36.942Z,2.95
2022-12-23T21:54:07.645Z,2.85
2022-12-23T21:56:35.168Z,2.33
2022-12-23T21:59:05.311Z,6.93
2022-12-23T22:01:33.824Z,2.20
2022-12-23T22:04:01.167Z,4.20
2022-12-23T22:06:46.559Z,2.17
2022-12-23T22:09:17.272Z,1.45
2022-12-23T22:11:45.239Z,1.27
2022-12-23T22:14:14.981Z,2.00
2022-12-23T22:16:42.310Z,3.22
2022-12-23T22:19:11.355Z,1.67
2022-12-23T22:21:40.010Z,2.22
2022-12-23T22:24:08.055Z,2.88
2022-12-23T22:26:35.822Z,2.42
2022-12-23T22:29:06.230Z,2.00
2022-12-23T22:31:46.193Z,4.15
2022-12-23T22:34:17.019Z,2.28
2022-12-23T22:36:44.640Z,4.47
2022-12-23T22:39:19.768Z,1.73
2022-12-23T22:41:48.377Z,2.28
2022-12-23T22:44:16.413Z,2.75
2022-12-23T22:46:43.937Z,2.50
2022-12-23T22:49:15.506Z,1.00
2022-12-23T22:51:43.654Z,1.38
2022-12-23T22:54:11.235Z,2.15
2022-12-23T22:56:38.491Z,5.18
2022-12-23T22:59:05.726Z,3.35
2022-12-23T23:01:34.816Z,1.95
2022-12-23T23:04:03.769Z,8.48
2022-12-23T23:06:40.131Z,7.20
2022-12-23T23:09:09.747Z,9.40
2022-12-23T23:11:37.131Z,3.45
2022-12-23T23:14:04.669Z,2.08
2022-12-23T23:16:32.615Z,2.83
2022-12-23T23:19:00.369Z,1.48
2022-12-23T23:21:27.622Z,3.28
2022-12-23T23:23:54.915Z,2.22
2022-12-23T23:26:22.213Z,4.28
2022-12-23T23:28:49.520Z,2.50
2022-12-23T23:31:41.044Z,2.47
2022-12-23T23:34:04.178Z,3.30
2022-12-23T23:36:31.421Z,2.03
2022-12-23T23:38:58.681Z,1.13
2022-12-23T23:41:25.925Z,2.78
2022-12-23T23:43:53.219Z,1.92
2022-12-23T23:46:20.486Z,3.05
2022-12-23T23:48:48.117Z,4.68
2022-12-23T23:51:15.351Z,2.05
2022-12-23T23:53:42.555Z,2.95
2022-12-23T23:56:09.911Z,2.75
2022-12-23T23:58:37.718Z,2.03
